createdAt,value
2023-01-28T00:02:02.177Z,73.26
2023-01-28T00:04:29.044Z,72.78
2023-01-28T00:06:57.354Z,73.54
2023-01-28T00:09:24.538Z,73.54
2023-01-28T00:11:51.501Z,73.79
2023-01-28T00:14:18.321Z,73.38
2023-01-28T00:16:45.453Z,73.83
2023-01-28T00:19:12.193Z,73.57
2023-01-28T00:21:39.045Z,73.87
2023-01-28T00:24:08.266Z,73.60
2023-01-28T00:26:36.273Z,74.34
2023-01-28T00:29:03.553Z,74.51
2023-01-28T00:31:30.472Z,74.27
2023-01-28T00:33:57.917Z,74.51
2023-01-28T00:36:26.673Z,75.11
2023-01-28T00:38:55.858Z,74.88
2023-01-28T00:41:27.682Z,74.85
2023-01-28T00:43:54.973Z,75.24
2023-01-28T00:46:22.830Z,75.02
2023-01-28T00:48:49.954Z,74.78
2023-01-28T00:51:19.612Z,75.08
2023-01-28T00:53:47.251Z,75.28
2023-01-28T00:56:16.828Z,75.79
2023-01-28T00:58:45.752Z,76.07
2023-01-28T01:01:15.876Z,76.01
2023-01-28T01:03:43.240Z,76.12
2023-01-28T01:06:12.643Z,75.91
2023-01-28T01:08:39.910Z,75.95
2023-01-28T01:11:09.639Z,75.99
2023-01-28T01:13:37.128Z,75.90
2023-01-28T01:16:09.441Z,75.68
2023-01-28T01:18:37.415Z,76.02
2023-01-28T01:21:08.442Z,75.88
2023-01-28T01:23:35.449Z,75.94
2023-01-28T01:26:03.518Z,76.14
2023-01-28T01:28:30.420Z,76.11
2023-01-28T01:31:02.223Z,75.80
2023-01-28T01:33:31.926Z,76.36
2023-01-28T01:35:59.862Z,76.16
2023-01-28T01:38:28.482Z,75.63
2023-01-28T01:40:57.696Z,75.92
2023-01-28T01:43:24.565Z,75.69
2023-01-28T01:45:59.063Z,75.71
2023-01-28T01:48:33.619Z,75.21
2023-01-28T01:51:05.821Z,75.60
2023-01-28T01:53:33.075Z,75.72
2023-01-28T01:56:06.416Z,75.65
2023-01-28T01:58:40.733Z,75.23
2023-01-28T02:01:08.332Z,75.39
2023-01-28T02:03:46.711Z,75.63
2023-01-28T02:06:14.365Z,76.59
2023-01-28T02:08:45.327Z,76.80
2023-01-28T02:11:15.502Z,77.55
2023-01-28T02:13:50.852Z,77.34
2023-01-28T02:16:18.752Z,77.35
2023-01-28T02:18:47.026Z,77.19
2023-01-28T02:21:54.686Z,77.26
2023-01-28T02:24:54.162Z,77.03
2023-01-28T02:27:33.510Z,77.10
2023-01-28T02:30:15.218Z,77.32
2023-01-28T02:32:53.099Z,77.51
2023-01-28T02:35:31.845Z,77.91
2023-01-28T02:38:07.206Z,77.95
2023-01-28T02:40:41.443Z,77.94
2023-01-28T02:43:08.405Z,77.31
2023-01-28T02:45:36.805Z,77.12
2023-01-28T02:48:04.032Z,76.94
2023-01-28T02:50:43.680Z,77.22
2023-01-28T02:53:22.586Z,76.74
2023-01-28T02:56:00.742Z,76.66
2023-01-28T02:58:40.385Z,76.86
2023-01-28T03:01:23.525Z,76.72
2023-01-28T03:04:03.275Z,76.68
2023-01-28T03:06:37.653Z,76.79
2023-01-28T03:09:09.686Z,76.48
2023-01-28T03:11:42.081Z,76.82
2023-01-28T03:14:12.098Z,77.16
2023-01-28T03:16:41.972Z,77.33
2023-01-28T03:19:10.704Z,77.25
2023-01-28T03:21:44.686Z,77.03
2023-01-28T03:24:17.927Z,76.70
2023-01-28T03:26:58.198Z,76.51
2023-01-28T03:29:30.205Z,76.75
2023-01-28T03:32:01.273Z,76.52
2023-01-28T03:34:28.622Z,76.95
2023-01-28T03:36:56.995Z,76.62
2023-01-28T03:39:56.319Z,76.74
2023-01-28T03:42:23.218Z,77.09
2023-01-28T03:45:04.962Z,76.92
2023-01-28T03:47:34.132Z,76.78
2023-01-28T03:50:03.841Z,77.14
2023-01-28T03:52:37.153Z,77.07
2023-01-28T03:55:16.990Z,77.30
2023-01-28T03:57:43.903Z,77.41
2023-01-28T04:00:26.042Z,78.00
2023-01-28T04:02:56.553Z,78.01
2023-01-28T04:05:24.579Z,78.86
2023-01-28T04:07:54.910Z,79.05
2023-01-28T04:10:34.912Z,79.02
2023-01-28T04:13:12.364Z,79.86
2023-01-28T04:15:39.975Z,80.91
2023-01-28T04:18:08.114Z,81.76
2023-01-28T04:20:35.188Z,82.36
2023-01-28T04:23:02.003Z,82.44
2023-01-28T04:25:29.555Z,82.76
2023-01-28T04:27:56.693Z,83.29
2023-01-28T04:30:26.717Z,83.55
2023-01-28T04:33:24.267Z,84.33
2023-01-28T04:35:51.023Z,84.58
2023-01-28T04:38:25.141Z,85.25
2023-01-28T04:41:05.554Z,85.73
2023-01-28T04:43:34.753Z,85.93
2023-01-28T04:46:27.793Z,86.81
2023-01-28T04:49:22.581Z,86.91
2023-01-28T04:52:12.636Z,86.84
2023-01-28T04:54:56.473Z,86.79
2023-01-28T04:57:24.203Z,86.46
2023-01-28T04:59:51.617Z,86.61
2023-01-28T05:02:18.433Z,86.44
2023-01-28T05:04:48.573Z,86.78
2023-01-28T05:07:35.233Z,86.60
2023-01-28T05:10:02.170Z,86.86
2023-01-28T05:12:30.109Z,86.77
2023-01-28T05:14:57.216Z,86.45
2023-01-28T05:17:24.195Z,86.58
2023-01-28T05:19:52.865Z,87.11
2023-01-28T05:22:23.238Z,87.36
2023-01-28T05:25:10.251Z,87.41
2023-01-28T05:27:37.126Z,87.56
2023-01-28T05:30:05.588Z,87.71
2023-01-28T05:32:33.013Z,87.87
2023-01-28T05:35:01.276Z,87.71
2023-01-28T05:37:28.190Z,88.41
2023-01-28T05:39:56.605Z,88.85
2023-01-28T05:42:23.666Z,89.03
2023-01-28T05:44:55.376Z,89.28
2023-01-28T05:47:40.789Z,89.48
2023-01-28T05:50:24.769Z,89.51
2023-01-28T05:53:10.887Z,90.04
2023-01-28T05:55:40.121Z,90.34
2023-01-28T05:58:06.965Z,90.70
2023-01-28T06:00:34.519Z,90.16
2023-01-28T06:03:03.932Z,90.26
2023-01-28T06:05:33.613Z,90.12
2023-01-28T06:08:01.232Z,89.54
2023-01-28T06:10:28.178Z,89.65
2023-01-28T06:12:55.734Z,89.13
2023-01-28T06:15:31.799Z,88.79
2023-01-28T06:18:05.680Z,88.98
2023-01-28T06:20:35.653Z,89.23
2023-01-28T06:23:02.491Z,88.89
2023-01-28T06:25:29.369Z,89.02
2023-01-28T06:28:00.687Z,89.43
2023-01-28T06:30:27.473Z,88.92
2023-01-28T06:32:55.288Z,88.91
2023-01-28T06:35:22.710Z,88.83
2023-01-28T06:37:52.758Z,88.61
2023-01-28T06:40:20.082Z,89.22
2023-01-28T06:42:46.886Z,89.40
2023-01-28T06:45:13.869Z,89.80
2023-01-28T06:47:40.776Z,90.25
2023-01-28T06:50:09.403Z,90.41
2023-01-28T06:52:36.180Z,90.35
2023-01-28T06:55:05.400Z,89.92
2023-01-28T06:57:32.162Z,89.59
2023-01-28T06:59:58.909Z,89.60
2023-01-28T07:02:27.698Z,90.57
2023-01-28T07:04:54.590Z,91.08
2023-01-28T07:07:21.463Z,89.97
2023-01-28T07:09:48.277Z,88.89
2023-01-28T07:12:16.459Z,87.35
2023-01-28T07:14:43.267Z,87.68
2023-01-28T07:17:10.164Z,87.23
2023-01-28T07:19:37.462Z,87.60
2023-01-28T07:22:04.340Z,87.33
2023-01-28T07:24:32.084Z,87.40
2023-01-28T07:26:59.410Z,87.36
2023-01-28T07:29:28.612Z,87.22
2023-01-28T07:31:55.449Z,87.34
2023-01-28T07:34:22.191Z,87.61
2023-01-28T07:36:49.023Z,88.03
2023-01-28T07:39:15.830Z,87.82
2023-01-28T07:41:42.639Z,87.87
2023-01-28T07:44:10.895Z,88.11
2023-01-28T07:46:39.390Z,87.95
2023-01-28T07:49:06.377Z,88.09
2023-01-28T07:51:33.157Z,87.77
2023-01-28T07:54:00.040Z,87.70
2023-01-28T07:56:26.878Z,87.89
2023-01-28T07:58:54.000Z,88.46
2023-01-28T08:01:20.808Z,88.16
2023-01-28T08:03:49.226Z,87.63
2023-01-28T08:06:16.014Z,87.86
2023-01-28T08:08:42.906Z,87.17
2023-01-28T08:11:10.387Z,86.35
2023-01-28T08:13:37.418Z,86.21
2023-01-28T08:16:05.384Z,86.03
2023-01-28T08:18:32.248Z,86.07
2023-01-28T08:21:00.433Z,85.81
2023-01-28T08:23:27.731Z,85.56
2023-01-28T08:25:55.172Z,85.26
2023-01-28T08:28:22.508Z,85.60
2023-01-28T08:30:49.579Z,86.06
2023-01-28T08:33:19.072Z,85.85
2023-01-28T08:35:46.722Z,86.02
2023-01-28T08:38:15.482Z,86.35
2023-01-28T08:40:42.315Z,86.24
2023-01-28T08:43:09.447Z,85.72
2023-01-28T08:45:36.352Z,85.57
2023-01-28T08:48:05.883Z,85.33
2023-01-28T08:50:36.362Z,84.87
2023-01-28T08:53:06.629Z,85.29
2023-01-28T08:55:34.966Z,84.87
2023-01-28T08:58:04.062Z,85.21
2023-01-28T09:00:31.531Z,85.31
2023-01-28T09:02:58.320Z,84.98
2023-01-28T09:05:25.129Z,84.91
2023-01-28T09:07:51.938Z,85.29
2023-01-28T09:10:19.298Z,85.08
2023-01-28T09:12:47.521Z,84.90
2023-01-28T09:15:14.402Z,83.88
2023-01-28T09:17:41.131Z,84.29
2023-01-28T09:20:10.038Z,84.42
2023-01-28T09:22:36.930Z,83.48
2023-01-28T09:25:04.487Z,83.69
2023-01-28T09:27:32.048Z,84.53
2023-01-28T09:30:00.308Z,83.75
2023-01-28T09:32:27.103Z,83.53
2023-01-28T09:34:53.909Z,82.94
2023-01-28T09:37:20.691Z,82.86
2023-01-28T09:39:47.431Z,82.83
2023-01-28T09:42:46.595Z,82.79
2023-01-28T09:45:21.916Z,83.45
2023-01-28T09:47:53.064Z,82.68
2023-01-28T09:50:30.946Z,82.91
2023-01-28T09:53:07.947Z,82.41
2023-01-28T09:55:39.174Z,82.90
2023-01-28T09:58:11.751Z,85.75
2023-01-28T10:00:51.284Z,82.79
2023-01-28T10:03:48.063Z,83.48
2023-01-28T10:06:28.266Z,83.41
2023-01-28T10:09:25.271Z,83.28
2023-01-28T10:12:23.337Z,83.51
2023-01-28T10:15:20.326Z,83.62
2023-01-28T10:18:07.213Z,83.74
2023-01-28T10:20:48.893Z,84.32
2023-01-28T10:23:24.375Z,84.62
2023-01-28T10:25:51.232Z,85.75
2023-01-28T10:28:23.987Z,85.17
2023-01-28T10:30:52.168Z,85.33
2023-01-28T10:33:35.463Z,84.76
2023-01-28T10:36:03.633Z,84.92
2023-01-28T10:38:31.984Z,85.23
2023-01-28T10:41:03.604Z,85.44
2023-01-28T10:43:34.139Z,85.73
2023-01-28T10:46:09.710Z,86.00
2023-01-28T10:48:45.996Z,85.97
2023-01-28T10:51:13.236Z,86.16
2023-01-28T10:53:43.447Z,86.00
2023-01-28T10:56:15.954Z,85.29
2023-01-28T10:58:58.782Z,85.48
2023-01-28T11:01:37.688Z,85.22
2023-01-28T11:04:14.605Z,84.82
2023-01-28T11:06:41.535Z,84.75
2023-01-28T11:09:22.203Z,83.67
2023-01-28T11:11:49.065Z,84.10
2023-01-28T11:14:22.549Z,83.97
2023-01-28T11:16:52.898Z,84.16
2023-01-28T11:19:29.283Z,83.23
2023-01-28T11:21:57.847Z,83.33
2023-01-28T11:24:30.644Z,83.64
2023-01-28T11:27:10.745Z,83.83
2023-01-28T11:29:39.989Z,83.37
2023-01-28T11:32:18.905Z,83.43
2023-01-28T11:34:52.830Z,83.41
2023-01-28T11:37:24.523Z,83.45
2023-01-28T11:40:14.849Z,83.17
2023-01-28T11:42:41.973Z,83.01
2023-01-28T11:45:16.558Z,82.50
2023-01-28T11:48:03.648Z,81.60
2023-01-28T11:50:45.804Z,82.09
2023-01-28T11:53:42.222Z,81.68
2023-01-28T11:56:32.227Z,81.45
2023-01-28T11:59:22.388Z,80.76
2023-01-28T12:02:02.794Z,80.29
2023-01-28T12:05:01.446Z,80.84
2023-01-28T12:07:43.682Z,81.50
2023-01-28T12:10:29.228Z,80.54
2023-01-28T12:13:19.085Z,79.99
2023-01-28T12:16:08.627Z,80.08
2023-01-28T12:19:17.931Z,80.17
2023-01-28T12:22:07.598Z,79.37
2023-01-28T12:24:55.804Z,80.04
2023-01-28T12:27:44.105Z,79.51
2023-01-28T12:30:31.342Z,80.48
2023-01-28T12:33:36.799Z,79.53
2023-01-28T12:36:16.185Z,78.98
2023-01-28T12:38:59.601Z,79.91
2023-01-28T12:41:34.649Z,78.28
2023-01-28T12:44:06.017Z,79.79
2023-01-28T12:46:45.122Z,78.50
2023-01-28T12:49:20.888Z,78.85
2023-01-28T12:52:01.557Z,79.56
2023-01-28T12:54:39.113Z,77.83
2023-01-28T12:57:16.665Z,77.43
2023-01-28T12:59:51.680Z,78.52
2023-01-28T13:02:30.585Z,77.34
2023-01-28T13:05:09.168Z,77.70
2023-01-28T13:07:44.142Z,77.21
2023-01-28T13:10:28.965Z,76.79
2023-01-28T13:12:59.248Z,76.67
2023-01-28T13:15:26.468Z,76.67
2023-01-28T13:17:59.518Z,76.85
2023-01-28T13:20:37.484Z,76.01
2023-01-28T13:23:22.941Z,76.20
2023-01-28T13:25:52.542Z,75.97
2023-01-28T13:28:29.808Z,75.72
2023-01-28T13:31:06.224Z,76.60
2023-01-28T13:33:36.407Z,76.31
2023-01-28T13:36:25.721Z,76.74
2023-01-28T13:39:02.597Z,76.01
2023-01-28T13:41:41.595Z,76.05
2023-01-28T13:44:27.639Z,76.46
2023-01-28T13:46:59.358Z,77.32
2023-01-28T13:49:37.607Z,76.22
2023-01-28T13:52:15.244Z,76.13
2023-01-28T13:54:51.717Z,75.29
2023-01-28T13:58:10.207Z,74.89
2023-01-28T14:01:08.793Z,74.32
2023-01-28T14:04:07.257Z,75.19
2023-01-28T14:07:17.413Z,74.27
2023-01-28T14:10:16.995Z,75.57
2023-01-28T14:13:21.739Z,74.71
2023-01-28T14:16:28.507Z,73.58
2023-01-28T14:19:00.998Z,73.97
2023-01-28T14:21:32.440Z,74.42
2023-01-28T14:24:00.568Z,74.24
2023-01-28T14:26:52.213Z,74.94
2023-01-28T14:29:56.460Z,75.28
2023-01-28T14:32:30.111Z,74.27
2023-01-28T14:35:04.028Z,74.32
2023-01-28T14:37:36.277Z,74.61
2023-01-28T14:40:07.907Z,73.91
2023-01-28T14:42:43.101Z,73.94
2023-01-28T14:45:45.066Z,73.29
2023-01-28T14:48:46.173Z,73.75
2023-01-28T14:51:41.354Z,73.35
2023-01-28T14:54:36.867Z,73.25
2023-01-28T14:57:41.977Z,72.73
2023-01-28T15:00:24.387Z,74.19
2023-01-28T15:02:55.113Z,73.54
2023-01-28T15:05:26.971Z,73.23
2023-01-28T15:08:00.019Z,73.14
2023-01-28T15:10:39.498Z,73.47
2023-01-28T15:13:17.334Z,74.30
2023-01-28T15:15:57.140Z,73.53
2023-01-28T15:18:42.749Z,73.67
2023-01-28T15:21:19.256Z,73.99
2023-01-28T15:23:56.672Z,74.23
2023-01-28T15:26:51.107Z,74.97
2023-01-28T15:29:40.296Z,75.06
2023-01-28T15:32:25.630Z,74.85
2023-01-28T15:34:59.525Z,74.15
2023-01-28T15:37:35.122Z,73.40
2023-01-28T15:40:20.559Z,73.12
2023-01-28T15:42:55.549Z,73.11
2023-01-28T15:45:29.597Z,73.44
2023-01-28T15:48:09.074Z,73.25
2023-01-28T15:50:42.397Z,72.89
2023-01-28T15:53:15.032Z,72.99
2023-01-28T15:55:49.055Z,73.08
2023-01-28T15:58:29.728Z,73.04
2023-01-28T16:01:19.378Z,72.83
2023-01-28T16:04:03.311Z,73.62
2023-01-28T16:06:41.707Z,73.45
2023-01-28T16:09:25.929Z,73.45
2023-01-28T16:12:04.109Z,73.48
2023-01-28T16:14:43.154Z,74.23
2023-01-28T16:17:16.768Z,74.28
2023-01-28T16:19:48.773Z,73.60
2023-01-28T16:22:23.055Z,73.92
2023-01-28T16:24:54.002Z,73.66
2023-01-28T16:27:24.017Z,74.78
2023-01-28T16:29:50.925Z,73.47
2023-01-28T16:32:35.408Z,73.46
2023-01-28T16:35:03.043Z,73.20
2023-01-28T16:37:30.219Z,72.94
2023-01-28T16:40:00.354Z,72.64
2023-01-28T16:42:30.923Z,72.80
2023-01-28T16:44:58.474Z,72.75
2023-01-28T16:47:25.360Z,72.80
2023-01-28T16:49:52.473Z,72.78
2023-01-28T16:52:19.332Z,72.57
2023-01-28T16:54:47.268Z,72.67
2023-01-28T16:57:18.874Z,73.81
2023-01-28T16:59:46.089Z,72.91
2023-01-28T17:02:16.142Z,73.34
2023-01-28T17:04:43.418Z,73.38
2023-01-28T17:07:10.758Z,73.44
2023-01-28T17:09:37.644Z,73.25
2023-01-28T17:12:10.675Z,73.40
2023-01-28T17:14:38.904Z,72.95
2023-01-28T17:17:05.802Z,73.27
2023-01-28T17:19:32.770Z,73.75
2023-01-28T17:21:59.615Z,73.26
2023-01-28T17:24:29.508Z,73.40
2023-01-28T17:26:56.655Z,73.84
2023-01-28T17:29:23.518Z,74.18
2023-01-28T17:31:51.932Z,73.75
2023-01-28T17:34:18.834Z,74.01
2023-01-28T17:36:45.663Z,74.09
2023-01-28T17:39:12.540Z,73.78
2023-01-28T17:41:39.503Z,73.84
2023-01-28T17:44:06.637Z,74.37
2023-01-28T17:46:33.653Z,74.37
2023-01-28T17:49:03.570Z,74.75
2023-01-28T17:51:33.143Z,75.13
2023-01-28T17:54:11.875Z,74.60
2023-01-28T17:56:38.971Z,74.34
2023-01-28T17:59:10.548Z,74.40
2023-01-28T18:01:39.950Z,74.55
2023-01-28T18:04:18.161Z,74.57
2023-01-28T18:06:48.076Z,74.56
2023-01-28T18:09:21.351Z,74.37
2023-01-28T18:11:54.189Z,74.63
2023-01-28T18:14:21.569Z,74.33
2023-01-28T18:16:54.038Z,75.00
2023-01-28T18:19:24.335Z,74.96
2023-01-28T18:21:57.360Z,75.35
2023-01-28T18:24:29.528Z,75.23
2023-01-28T18:27:06.384Z,75.25
2023-01-28T18:29:39.560Z,75.26
2023-01-28T18:32:09.523Z,75.25
2023-01-28T18:34:40.019Z,74.90
2023-01-28T18:37:18.112Z,74.46
2023-01-28T18:39:56.329Z,74.43
2023-01-28T18:42:40.989Z,74.33
2023-01-28T18:45:24.941Z,74.83
2023-01-28T18:47:56.035Z,74.76
2023-01-28T18:50:44.950Z,74.73
2023-01-28T18:53:26.110Z,74.40
2023-01-28T18:56:06.078Z,74.19
2023-01-28T18:58:38.851Z,74.44
2023-01-28T19:01:14.292Z,74.33
2023-01-28T19:03:48.266Z,74.31
2023-01-28T19:06:26.252Z,73.93
2023-01-28T19:08:56.680Z,73.45
2023-01-28T19:11:32.271Z,73.67
2023-01-28T19:14:09.231Z,73.53
2023-01-28T19:16:37.425Z,73.28
2023-01-28T19:19:09.432Z,74.03
2023-01-28T19:21:46.210Z,73.22
2023-01-28T19:24:17.761Z,72.93
2023-01-28T19:26:49.490Z,73.72
2023-01-28T19:29:20.347Z,73.17
2023-01-28T19:31:55.526Z,73.59
2023-01-28T19:34:25.704Z,73.62
2023-01-28T19:37:00.335Z,72.70
2023-01-28T19:39:36.154Z,72.75
2023-01-28T19:42:08.959Z,72.85
2023-01-28T19:44:39.785Z,72.76
2023-01-28T19:47:10.635Z,72.77
2023-01-28T19:49:48.317Z,72.79
2023-01-28T19:52:29.503Z,73.10
2023-01-28T19:55:12.105Z,72.30
2023-01-28T19:57:49.181Z,72.07
2023-01-28T20:00:19.315Z,72.16
2023-01-28T20:02:56.191Z,72.78
2023-01-28T20:05:36.385Z,72.66
2023-01-28T20:08:11.880Z,72.40
2023-01-28T20:10:43.975Z,72.69
2023-01-28T20:13:13.661Z,72.94
2023-01-28T20:15:43.803Z,73.28
2023-01-28T20:18:26.309Z,72.84
2023-01-28T20:20:58.465Z,73.41
2023-01-28T20:23:33.662Z,72.96
2023-01-28T20:26:10.080Z,73.31
2023-01-28T20:28:40.876Z,73.99
2023-01-28T20:31:20.504Z,74.08
2023-01-28T20:33:54.748Z,74.06
2023-01-28T20:36:27.046Z,73.91
2023-01-28T20:38:57.775Z,73.29
2023-01-28T20:41:30.433Z,72.74
2023-01-28T20:44:05.260Z,73.65
2023-01-28T20:46:50.191Z,78.79
2023-01-28T20:49:21.371Z,74.24
2023-01-28T20:51:59.114Z,74.01
2023-01-28T20:54:37.172Z,75.87
2023-01-28T20:57:07.684Z,69.41
2023-01-28T20:59:45.738Z,66.42
2023-01-28T21:02:15.888Z,68.19
2023-01-28T21:05:00.159Z,68.81
2023-01-28T21:07:51.221Z,69.08
2023-01-28T21:10:28.507Z,73.77
2023-01-28T21:13:06.011Z,68.74
2023-01-28T21:15:42.787Z,66.38
2023-01-28T21:18:18.579Z,63.56
2023-01-28T21:21:11.178Z,65.10
2023-01-28T21:23:39.141Z,65.77
2023-01-28T21:26:23.036Z,67.08
2023-01-28T21:28:59.468Z,68.15
2023-01-28T21:31:35.571Z,68.12
2023-01-28T21:34:04.629Z,67.45
2023-01-28T21:36:49.722Z,68.37
2023-01-28T21:39:36.299Z,69.11
2023-01-28T21:42:27.194Z,69.66
2023-01-28T21:45:08.718Z,69.63
2023-01-28T21:47:44.839Z,68.51
2023-01-28T21:50:32.912Z,68.95
2023-01-28T21:53:06.843Z,69.19
2023-01-28T21:55:37.068Z,68.57
2023-01-28T21:58:17.483Z,68.79
2023-01-28T22:01:14.289Z,69.56
2023-01-28T22:03:52.942Z,69.40
2023-01-28T22:06:38.421Z,69.46
2023-01-28T22:09:13.097Z,69.63
2023-01-28T22:11:45.624Z,68.92
2023-01-28T22:14:31.821Z,68.94
2023-01-28T22:17:13.035Z,69.51
2023-01-28T22:19:43.310Z,69.47
2023-01-28T22:22:35.076Z,69.76
2023-01-28T22:25:05.482Z,69.51
2023-01-28T22:27:37.214Z,69.37
2023-01-28T22:30:16.620Z,69.25
2023-01-28T22:32:55.373Z,69.52
2023-01-28T22:35:27.947Z,69.33
2023-01-28T22:37:58.195Z,69.64
2023-01-28T22:40:30.003Z,69.65
2023-01-28T22:43:17.232Z,69.78
2023-01-28T22:46:00.101Z,69.76
2023-01-28T22:48:47.207Z,69.03
2023-01-28T22:51:38.110Z,69.44
2023-01-28T22:54:17.863Z,68.73
2023-01-28T22:56:53.982Z,68.50
2023-01-28T22:59:26.283Z,68.45
2023-01-28T23:02:02.542Z,68.92
2023-01-28T23:04:36.147Z,69.17
2023-01-28T23:07:07.316Z,69.59
2023-01-28T23:09:43.712Z,69.60
2023-01-28T23:12:14.821Z,69.33
2023-01-28T23:14:54.152Z,69.16
2023-01-28T23:17:30.991Z,69.99
2023-01-28T23:20:00.407Z,68.65
2023-01-28T23:22:34.415Z,69.14
2023-01-28T23:25:06.103Z,69.23
2023-01-28T23:27:45.033Z,68.98
2023-01-28T23:30:14.828Z,68.32
2023-01-28T23:32:58.667Z,68.38
2023-01-28T23:35:43.037Z,68.73
2023-01-28T23:38:12.684Z,68.47
2023-01-28T23:40:45.010Z,68.68
2023-01-28T23:43:18.036Z,68.25
2023-01-28T23:45:54.755Z,68.82
2023-01-28T23:48:27.538Z,68.20
2023-01-28T23:50:56.410Z,67.98
2023-01-28T23:53:25.773Z,68.45
2023-01-28T23:56:00.245Z,68.04
2023-01-28T23:58:43.331Z,67.95
